sensor_id;sensor_type;location;lat;lon;timestamp;temperature;humidity
74458;SHT31;62896;51.032;3.712;2023-03-22T00:02:44;9.6;87
74458;SHT31;62896;51.032;3.712;2023-03-22T00:06:04;9.6;87
74458;SHT31;62896;51.032;3.712;2023-03-22T00:09:24;9.6;87
74458;SHT31;62896;51.032;3.712;2023-03-22T00:12:44;9.6;87
74458;SHT31;62896;51.032;3.712;2023-03-22T00:16:04;9.7;89
74458;SHT31;62896;51.032;3.712;2023-03-22T00:19:24;9.7;89
74458;SHT31;62896;51.032;3.712;2023-03-22T00:22:44;9.7;89
74458;SHT31;62896;51.032;3.712;2023-03-22T00:26:04;9.9;89
74458;SHT31;62896;51.032;3.712;2023-03-22T00:29:24;9.9;89
74458;SHT31;62896;51.032;3.712;2023-03-22T00:32:44;9.9;89
74458;SHT31;62896;51.032;3.712;2023-03-22T00:36:05;10.1;90
74458;SHT31;62896;51.032;3.712;2023-03-22T00:39:24;10.1;90
74458;SHT31;62896;51.032;3.712;2023-03-22T00:42:44;10.1;90
74458;SHT31;62896;51.032;3.712;2023-03-22T00:46:04;10.4;89
74458;SHT31;62896;51.032;3.712;2023-03-22T00:49:24;10.4;89
74458;SHT31;62896;51.032;3.712;2023-03-22T00:52:44;10.4;89
74458;SHT31;62896;51.032;3.712;2023-03-22T00:56:04;10.6;89
74458;SHT31;62896;51.032;3.712;2023-03-22T00:59:24;10.6;89
74458;SHT31;62896;51.032;3.712;2023-03-22T01:02:44;10.6;89
74458;SHT31;62896;51.032;3.712;2023-03-22T01:06:04;10.7;88
74458;SHT31;62896;51.032;3.712;2023-03-22T01:09:24;10.7;88
74458;SHT31;62896;51.032;3.712;2023-03-22T01:12:44;10.7;88
74458;SHT31;62896;51.032;3.712;2023-03-22T01:16:04;10.8;88
74458;SHT31;62896;51.032;3.712;2023-03-22T01:19:24;10.8;88
74458;SHT31;62896;51.032;3.712;2023-03-22T01:22:44;10.8;88
74458;SHT31;62896;51.032;3.712;2023-03-22T01:26:04;10.8;87
74458;SHT31;62896;51.032;3.712;2023-03-22T01:29:24;10.8;87
74458;SHT31;62896;51.032;3.712;2023-03-22T01:32:44;10.8;87
74458;SHT31;62896;51.032;3.712;2023-03-22T01:36:04;10.9;87
74458;SHT31;62896;51.032;3.712;2023-03-22T01:39:24;10.9;87
74458;SHT31;62896;51.032;3.712;2023-03-22T01:42:44;10.9;87
74458;SHT31;62896;51.032;3.712;2023-03-22T01:46:04;10.9;86
74458;SHT31;62896;51.032;3.712;2023-03-22T01:49:25;10.9;86
74458;SHT31;62896;51.032;3.712;2023-03-22T01:52:44;10.9;86
74458;SHT31;62896;51.032;3.712;2023-03-22T01:56:04;10.8;86
74458;SHT31;62896;51.032;3.712;2023-03-22T01:59:24;10.8;86
74458;SHT31;62896;51.032;3.712;2023-03-22T02:02:46;10.8;86
74458;SHT31;62896;51.032;3.712;2023-03-22T02:06:04;10.8;86
74458;SHT31;62896;51.032;3.712;2023-03-22T02:09:24;10.8;86
74458;SHT31;62896;51.032;3.712;2023-03-22T02:12:47;10.8;86
74458;SHT31;62896;51.032;3.712;2023-03-22T02:16:07;10.8;86
74458;SHT31;62896;51.032;3.712;2023-03-22T02:19:31;10.8;86
74458;SHT31;62896;51.032;3.712;2023-03-22T02:22:49;10.8;86
74458;SHT31;62896;51.032;3.712;2023-03-22T02:26:12;10.8;86
74458;SHT31;62896;51.032;3.712;2023-03-22T02:29:27;10.8;86
74458;SHT31;62896;51.032;3.712;2023-03-22T02:32:47;10.8;86
74458;SHT31;62896;51.032;3.712;2023-03-22T02:36:08;10.7;86
74458;SHT31;62896;51.032;3.712;2023-03-22T02:39:27;10.7;86
74458;SHT31;62896;51.032;3.712;2023-03-22T02:42:48;10.7;86
74458;SHT31;62896;51.032;3.712;2023-03-22T02:46:05;10.6;86
74458;SHT31;62896;51.032;3.712;2023-03-22T02:49:25;10.6;86
74458;SHT31;62896;51.032;3.712;2023-03-22T02:52:45;10.6;86
74458;SHT31;62896;51.032;3.712;2023-03-22T02:56:05;10.6;86
74458;SHT31;62896;51.032;3.712;2023-03-22T02:59:24;10.6;86
74458;SHT31;62896;51.032;3.712;2023-03-22T03:02:45;10.6;86
74458;SHT31;62896;51.032;3.712;2023-03-22T03:06:04;10.5;85
74458;SHT31;62896;51.032;3.712;2023-03-22T03:09:24;10.5;85
74458;SHT31;62896;51.032;3.712;2023-03-22T03:12:44;10.5;85
74458;SHT31;62896;51.032;3.712;2023-03-22T03:16:04;10.4;85
74458;SHT31;62896;51.032;3.712;2023-03-22T03:19:26;10.4;85
74458;SHT31;62896;51.032;3.712;2023-03-22T03:22:48;10.4;85
74458;SHT31;62896;51.032;3.712;2023-03-22T03:26:06;10.4;85
74458;SHT31;62896;51.032;3.712;2023-03-22T03:29:26;10.4;85
74458;SHT31;62896;51.032;3.712;2023-03-22T03:32:45;10.4;85
74458;SHT31;62896;51.032;3.712;2023-03-22T03:36:05;10.4;85
74458;SHT31;62896;51.032;3.712;2023-03-22T03:39:25;10.4;85
74458;SHT31;62896;51.032;3.712;2023-03-22T03:42:45;10.4;85
74458;SHT31;62896;51.032;3.712;2023-03-22T03:46:04;10.3;85
74458;SHT31;62896;51.032;3.712;2023-03-22T03:49:24;10.3;85
74458;SHT31;62896;51.032;3.712;2023-03-22T03:52:44;10.3;85
74458;SHT31;62896;51.032;3.712;2023-03-22T03:56:04;10.3;85
74458;SHT31;62896;51.032;3.712;2023-03-22T03:59:24;10.3;85
74458;SHT31;62896;51.032;3.712;2023-03-22T04:02:44;10.3;85
74458;SHT31;62896;51.032;3.712;2023-03-22T04:06:04;10.2;85
74458;SHT31;62896;51.032;3.712;2023-03-22T04:09:25;10.2;85
74458;SHT31;62896;51.032;3.712;2023-03-22T04:12:44;10.2;85
74458;SHT31;62896;51.032;3.712;2023-03-22T04:16:04;10.2;85
74458;SHT31;62896;51.032;3.712;2023-03-22T04:19:24;10.2;85
74458;SHT31;62896;51.032;3.712;2023-03-22T04:22:44;10.2;85
74458;SHT31;62896;51.032;3.712;2023-03-22T04:26:04;10.1;85
74458;SHT31;62896;51.032;3.712;2023-03-22T04:29:24;10.1;85
74458;SHT31;62896;51.032;3.712;2023-03-22T04:32:44;10.1;85
74458;SHT31;62896;51.032;3.712;2023-03-22T04:36:05;10.1;85
74458;SHT31;62896;51.032;3.712;2023-03-22T04:39:24;10.1;85
74458;SHT31;62896;51.032;3.712;2023-03-22T04:42:44;10.1;85
74458;SHT31;62896;51.032;3.712;2023-03-22T04:46:05;10.1;85
74458;SHT31;62896;51.032;3.712;2023-03-22T04:49:24;10.1;85
74458;SHT31;62896;51.032;3.712;2023-03-22T04:52:44;10.1;85
74458;SHT31;62896;51.032;3.712;2023-03-22T04:56:05;10.1;84
74458;SHT31;62896;51.032;3.712;2023-03-22T04:59:24;10.1;84
74458;SHT31;62896;51.032;3.712;2023-03-22T05:02:44;10.1;84
74458;SHT31;62896;51.032;3.712;2023-03-22T05:06:05;10.1;84
74458;SHT31;62896;51.032;3.712;2023-03-22T05:09:24;10.1;84
74458;SHT31;62896;51.032;3.712;2023-03-22T05:12:44;10.1;84
74458;SHT31;62896;51.032;3.712;2023-03-22T05:16:04;10.1;84
74458;SHT31;62896;51.032;3.712;2023-03-22T05:19:24;10.1;84
74458;SHT31;62896;51.032;3.712;2023-03-22T05:22:44;10.1;84
74458;SHT31;62896;51.032;3.712;2023-03-22T05:26:04;10;84
74458;SHT31;62896;51.032;3.712;2023-03-22T05:29:24;10;84
74458;SHT31;62896;51.032;3.712;2023-03-22T05:32:44;10;84
74458;SHT31;62896;51.032;3.712;2023-03-22T05:36:04;9.9;84
74458;SHT31;62896;51.032;3.712;2023-03-22T05:39:24;9.9;84
74458;SHT31;62896;51.032;3.712;2023-03-22T05:42:44;9.9;84
74458;SHT31;62896;51.032;3.712;2023-03-22T05:46:04;9.9;84
74458;SHT31;62896;51.032;3.712;2023-03-22T05:49:24;9.9;84
74458;SHT31;62896;51.032;3.712;2023-03-22T05:52:44;9.9;84
74458;SHT31;62896;51.032;3.712;2023-03-22T05:56:04;9.9;84
74458;SHT31;62896;51.032;3.712;2023-03-22T05:59:24;9.9;84
74458;SHT31;62896;51.032;3.712;2023-03-22T06:02:45;9.9;84
74458;SHT31;62896;51.032;3.712;2023-03-22T06:06:04;9.9;84
74458;SHT31;62896;51.032;3.712;2023-03-22T06:09:24;9.9;84
74458;SHT31;62896;51.032;3.712;2023-03-22T06:12:44;9.9;84
74458;SHT31;62896;51.032;3.712;2023-03-22T06:16:04;10;84
74458;SHT31;62896;51.032;3.712;2023-03-22T06:19:24;10;84
74458;SHT31;62896;51.032;3.712;2023-03-22T06:22:44;10;84
74458;SHT31;62896;51.032;3.712;2023-03-22T06:26:04;10;84
74458;SHT31;62896;51.032;3.712;2023-03-22T06:29:24;10;84
74458;SHT31;62896;51.032;3.712;2023-03-22T06:32:44;10;84
74458;SHT31;62896;51.032;3.712;2023-03-22T06:36:04;10.1;83
74458;SHT31;62896;51.032;3.712;2023-03-22T06:39:24;10.1;83
74458;SHT31;62896;51.032;3.712;2023-03-22T06:42:44;10.1;83
74458;SHT31;62896;51.032;3.712;2023-03-22T06:46:04;10.3;83
74458;SHT31;62896;51.032;3.712;2023-03-22T06:49:24;10.3;83
74458;SHT31;62896;51.032;3.712;2023-03-22T06:52:44;10.3;83
74458;SHT31;62896;51.032;3.712;2023-03-22T06:56:05;10.4;82
74458;SHT31;62896;51.032;3.712;2023-03-22T06:59:24;10.4;82
74458;SHT31;62896;51.032;3.712;2023-03-22T07:02:44;10.4;82
74458;SHT31;62896;51.032;3.712;2023-03-22T07:06:05;10.6;82
74458;SHT31;62896;51.032;3.712;2023-03-22T07:09:24;10.6;82
74458;SHT31;62896;51.032;3.712;2023-03-22T07:12:44;10.6;82
74458;SHT31;62896;51.032;3.712;2023-03-22T07:16:05;10.7;82
74458;SHT31;62896;51.032;3.712;2023-03-22T07:19:24;10.7;82
74458;SHT31;62896;51.032;3.712;2023-03-22T07:22:44;10.7;82
74458;SHT31;62896;51.032;3.712;2023-03-22T07:26:04;10.7;81
74458;SHT31;62896;51.032;3.712;2023-03-22T07:29:24;10.7;81
74458;SHT31;62896;51.032;3.712;2023-03-22T07:32:44;10.7;81
74458;SHT31;62896;51.032;3.712;2023-03-22T07:36:05;10.8;82
74458;SHT31;62896;51.032;3.712;2023-03-22T07:39:24;10.8;82
74458;SHT31;62896;51.032;3.712;2023-03-22T07:42:46;10.8;82
74458;SHT31;62896;51.032;3.712;2023-03-22T07:46:04;10.8;82
74458;SHT31;62896;51.032;3.712;2023-03-22T07:49:24;10.8;82
74458;SHT31;62896;51.032;3.712;2023-03-22T07:52:44;10.8;82
74458;SHT31;62896;51.032;3.712;2023-03-22T07:56:05;10.8;82
74458;SHT31;62896;51.032;3.712;2023-03-22T07:59:24;10.8;82
74458;SHT31;62896;51.032;3.712;2023-03-22T08:02:44;10.8;82
74458;SHT31;62896;51.032;3.712;2023-03-22T08:06:04;10.8;82
74458;SHT31;62896;51.032;3.712;2023-03-22T08:09:24;10.8;82
74458;SHT31;62896;51.032;3.712;2023-03-22T08:12:44;10.8;82
74458;SHT31;62896;51.032;3.712;2023-03-22T08:16:05;10.8;82
74458;SHT31;62896;51.032;3.712;2023-03-22T08:19:24;10.8;82
74458;SHT31;62896;51.032;3.712;2023-03-22T08:22:44;10.8;82
74458;SHT31;62896;51.032;3.712;2023-03-22T08:26:04;11;82
74458;SHT31;62896;51.032;3.712;2023-03-22T08:29:24;11;82
74458;SHT31;62896;51.032;3.712;2023-03-22T08:32:44;11;82
74458;SHT31;62896;51.032;3.712;2023-03-22T08:36:05;11.3;82
74458;SHT31;62896;51.032;3.712;2023-03-22T08:39:24;11.3;82
74458;SHT31;62896;51.032;3.712;2023-03-22T08:42:44;11.3;82
74458;SHT31;62896;51.032;3.712;2023-03-22T08:46:04;11.3;83
74458;SHT31;62896;51.032;3.712;2023-03-22T08:49:24;11.3;83
74458;SHT31;62896;51.032;3.712;2023-03-22T08:52:44;11.3;83
74458;SHT31;62896;51.032;3.712;2023-03-22T08:56:05;11.4;82
74458;SHT31;62896;51.032;3.712;2023-03-22T08:59:24;11.4;82
74458;SHT31;62896;51.032;3.712;2023-03-22T09:02:44;11.4;82
74458;SHT31;62896;51.032;3.712;2023-03-22T09:06:04;11.6;81
74458;SHT31;62896;51.032;3.712;2023-03-22T09:09:24;11.6;81
74458;SHT31;62896;51.032;3.712;2023-03-22T09:12:44;11.6;81
74458;SHT31;62896;51.032;3.712;2023-03-22T09:16:05;11.6;82
74458;SHT31;62896;51.032;3.712;2023-03-22T09:19:24;11.6;82
74458;SHT31;62896;51.032;3.712;2023-03-22T09:22:44;11.6;82
74458;SHT31;62896;51.032;3.712;2023-03-22T09:26:06;11.4;85
74458;SHT31;62896;51.032;3.712;2023-03-22T09:29:24;11.4;85
74458;SHT31;62896;51.032;3.712;2023-03-22T09:32:44;11.4;85
74458;SHT31;62896;51.032;3.712;2023-03-22T09:36:04;11.1;86
74458;SHT31;62896;51.032;3.712;2023-03-22T09:39:24;11.1;86
74458;SHT31;62896;51.032;3.712;2023-03-22T09:42:45;11.1;86
74458;SHT31;62896;51.032;3.712;2023-03-22T09:46:05;11;88
74458;SHT31;62896;51.032;3.712;2023-03-22T09:49:26;11;88
74458;SHT31;62896;51.032;3.712;2023-03-22T09:52:44;11;88
74458;SHT31;62896;51.032;3.712;2023-03-22T09:56:06;11;89
74458;SHT31;62896;51.032;3.712;2023-03-22T09:59:26;11;89
74458;SHT31;62896;51.032;3.712;2023-03-22T10:02:46;11;89
74458;SHT31;62896;51.032;3.712;2023-03-22T10:06:05;11;89
74458;SHT31;62896;51.032;3.712;2023-03-22T10:09:25;11;89
74458;SHT31;62896;51.032;3.712;2023-03-22T10:12:45;11;89
74458;SHT31;62896;51.032;3.712;2023-03-22T10:16:05;11.1;89
74458;SHT31;62896;51.032;3.712;2023-03-22T10:19:25;11.1;89
74458;SHT31;62896;51.032;3.712;2023-03-22T10:22:44;11.1;89
74458;SHT31;62896;51.032;3.712;2023-03-22T10:26:05;11.1;89
74458;SHT31;62896;51.032;3.712;2023-03-22T10:29:25;11.1;89
74458;SHT31;62896;51.032;3.712;2023-03-22T10:32:45;11.1;89
74458;SHT31;62896;51.032;3.712;2023-03-22T10:36:05;11.2;88
74458;SHT31;62896;51.032;3.712;2023-03-22T10:39:26;11.2;88
74458;SHT31;62896;51.032;3.712;2023-03-22T10:42:46;11.2;88
74458;SHT31;62896;51.032;3.712;2023-03-22T10:46:05;11.4;88
74458;SHT31;62896;51.032;3.712;2023-03-22T10:49:26;11.4;88
74458;SHT31;62896;51.032;3.712;2023-03-22T10:52:46;11.4;88
74458;SHT31;62896;51.032;3.712;2023-03-22T10:56:05;11.7;87
74458;SHT31;62896;51.032;3.712;2023-03-22T10:59:41;11.7;87
74458;SHT31;62896;51.032;3.712;2023-03-22T11:02:45;11.7;87
74458;SHT31;62896;51.032;3.712;2023-03-22T11:06:06;12;86
74458;SHT31;62896;51.032;3.712;2023-03-22T11:09:24;12;86
74458;SHT31;62896;51.032;3.712;2023-03-22T11:12:45;12;86
74458;SHT31;62896;51.032;3.712;2023-03-22T11:16:05;12.1;85
74458;SHT31;62896;51.032;3.712;2023-03-22T11:19:25;12.1;85
74458;SHT31;62896;51.032;3.712;2023-03-22T11:22:45;12.1;85
74458;SHT31;62896;51.032;3.712;2023-03-22T11:26:05;12.1;85
74458;SHT31;62896;51.032;3.712;2023-03-22T11:29:24;12.1;85
74458;SHT31;62896;51.032;3.712;2023-03-22T11:32:45;12.1;85
74458;SHT31;62896;51.032;3.712;2023-03-22T11:36:14;12;85
74458;SHT31;62896;51.032;3.712;2023-03-22T11:39:25;12;85
74458;SHT31;62896;51.032;3.712;2023-03-22T11:42:44;12;85
74458;SHT31;62896;51.032;3.712;2023-03-22T11:46:05;12;86
74458;SHT31;62896;51.032;3.712;2023-03-22T11:49:25;12;86
74458;SHT31;62896;51.032;3.712;2023-03-22T11:52:45;12;86
74458;SHT31;62896;51.032;3.712;2023-03-22T11:56:05;12;86
74458;SHT31;62896;51.032;3.712;2023-03-22T11:59:25;12;86
74458;SHT31;62896;51.032;3.712;2023-03-22T12:02:45;12;86
74458;SHT31;62896;51.032;3.712;2023-03-22T12:06:06;12;85
74458;SHT31;62896;51.032;3.712;2023-03-22T12:09:27;12;85
74458;SHT31;62896;51.032;3.712;2023-03-22T12:12:45;12;85
74458;SHT31;62896;51.032;3.712;2023-03-22T12:16:05;12.2;85
74458;SHT31;62896;51.032;3.712;2023-03-22T12:19:28;12.2;85
74458;SHT31;62896;51.032;3.712;2023-03-22T12:22:46;12.2;85
74458;SHT31;62896;51.032;3.712;2023-03-22T12:26:05;12.3;85
74458;SHT31;62896;51.032;3.712;2023-03-22T12:29:24;12.3;85
74458;SHT31;62896;51.032;3.712;2023-03-22T12:32:46;12.3;85
74458;SHT31;62896;51.032;3.712;2023-03-22T12:36:05;12.4;85
74458;SHT31;62896;51.032;3.712;2023-03-22T12:39:26;12.4;85
74458;SHT31;62896;51.032;3.712;2023-03-22T12:42:47;12.4;85
74458;SHT31;62896;51.032;3.712;2023-03-22T12:46:05;12.4;84
74458;SHT31;62896;51.032;3.712;2023-03-22T12:49:25;12.4;84
74458;SHT31;62896;51.032;3.712;2023-03-22T12:52:45;12.4;84
74458;SHT31;62896;51.032;3.712;2023-03-22T12:56:05;12.4;84
74458;SHT31;62896;51.032;3.712;2023-03-22T12:59:25;12.4;84
74458;SHT31;62896;51.032;3.712;2023-03-22T13:02:46;12.4;84
74458;SHT31;62896;51.032;3.712;2023-03-22T13:06:06;12.5;84
74458;SHT31;62896;51.032;3.712;2023-03-22T13:09:34;12.5;84
74458;SHT31;62896;51.032;3.712;2023-03-22T13:12:48;12.5;84
74458;SHT31;62896;51.032;3.712;2023-03-22T13:16:12;12.5;84
74458;SHT31;62896;51.032;3.712;2023-03-22T13:19:26;12.5;84
74458;SHT31;62896;51.032;3.712;2023-03-22T13:23:02;12.5;84
74458;SHT31;62896;51.032;3.712;2023-03-22T13:26:11;12.6;84
74458;SHT31;62896;51.032;3.712;2023-03-22T13:29:32;12.6;84
74458;SHT31;62896;51.032;3.712;2023-03-22T13:32:46;12.6;84
74458;SHT31;62896;51.032;3.712;2023-03-22T13:36:05;12.6;84
74458;SHT31;62896;51.032;3.712;2023-03-22T13:39:25;12.6;84
74458;SHT31;62896;51.032;3.712;2023-03-22T13:42:45;12.6;84
74458;SHT31;62896;51.032;3.712;2023-03-22T13:46:08;12.5;86
74458;SHT31;62896;51.032;3.712;2023-03-22T13:49:27;12.5;86
74458;SHT31;62896;51.032;3.712;2023-03-22T13:52:50;12.5;86
74458;SHT31;62896;51.032;3.712;2023-03-22T13:56:05;12.5;86
74458;SHT31;62896;51.032;3.712;2023-03-22T13:59:27;12.5;86
74458;SHT31;62896;51.032;3.712;2023-03-22T14:02:45;12.5;86
74458;SHT31;62896;51.032;3.712;2023-03-22T14:06:08;12.7;85
74458;SHT31;62896;51.032;3.712;2023-03-22T14:09:26;12.7;85
74458;SHT31;62896;51.032;3.712;2023-03-22T14:12:47;12.7;85
74458;SHT31;62896;51.032;3.712;2023-03-22T14:16:06;12.6;87
74458;SHT31;62896;51.032;3.712;2023-03-22T14:19:26;12.6;87
74458;SHT31;62896;51.032;3.712;2023-03-22T14:22:46;12.6;87
74458;SHT31;62896;51.032;3.712;2023-03-22T14:26:06;12.4;90
74458;SHT31;62896;51.032;3.712;2023-03-22T14:29:25;12.4;90
74458;SHT31;62896;51.032;3.712;2023-03-22T14:32:45;12.4;90
74458;SHT31;62896;51.032;3.712;2023-03-22T14:36:06;12.2;92
74458;SHT31;62896;51.032;3.712;2023-03-22T14:39:27;12.2;92
74458;SHT31;62896;51.032;3.712;2023-03-22T14:42:45;12.2;92
74458;SHT31;62896;51.032;3.712;2023-03-22T14:46:05;12;93
74458;SHT31;62896;51.032;3.712;2023-03-22T14:49:25;12;93
74458;SHT31;62896;51.032;3.712;2023-03-22T14:52:46;12;93
74458;SHT31;62896;51.032;3.712;2023-03-22T14:56:06;12;93
74458;SHT31;62896;51.032;3.712;2023-03-22T14:59:25;12;93
74458;SHT31;62896;51.032;3.712;2023-03-22T15:02:45;12;93
74458;SHT31;62896;51.032;3.712;2023-03-22T15:06:06;12;93
74458;SHT31;62896;51.032;3.712;2023-03-22T15:09:25;12;93
74458;SHT31;62896;51.032;3.712;2023-03-22T15:12:46;12;93
74458;SHT31;62896;51.032;3.712;2023-03-22T15:16:05;12;95
74458;SHT31;62896;51.032;3.712;2023-03-22T15:19:25;12;95
74458;SHT31;62896;51.032;3.712;2023-03-22T15:22:48;12;95
74458;SHT31;62896;51.032;3.712;2023-03-22T15:26:05;11.9;95
74458;SHT31;62896;51.032;3.712;2023-03-22T15:29:26;11.9;95
74458;SHT31;62896;51.032;3.712;2023-03-22T15:32:45;11.9;95
74458;SHT31;62896;51.032;3.712;2023-03-22T15:36:05;11.8;95
74458;SHT31;62896;51.032;3.712;2023-03-22T15:39:25;11.8;95
74458;SHT31;62896;51.032;3.712;2023-03-22T15:42:45;11.8;95
74458;SHT31;62896;51.032;3.712;2023-03-22T15:46:09;11.9;96
74458;SHT31;62896;51.032;3.712;2023-03-22T15:49:27;11.9;96
74458;SHT31;62896;51.032;3.712;2023-03-22T15:52:46;11.9;96
74458;SHT31;62896;51.032;3.712;2023-03-22T15:56:05;11.9;96
74458;SHT31;62896;51.032;3.712;2023-03-22T15:59:25;11.9;96
74458;SHT31;62896;51.032;3.712;2023-03-22T16:02:51;11.9;96
74458;SHT31;62896;51.032;3.712;2023-03-22T16:06:07;12;95
74458;SHT31;62896;51.032;3.712;2023-03-22T16:09:25;12;95
74458;SHT31;62896;51.032;3.712;2023-03-22T16:12:45;12;95
74458;SHT31;62896;51.032;3.712;2023-03-22T16:16:05;12;95
74458;SHT31;62896;51.032;3.712;2023-03-22T16:19:25;12;95
74458;SHT31;62896;51.032;3.712;2023-03-22T16:22:45;12;95
74458;SHT31;62896;51.032;3.712;2023-03-22T16:26:05;12;94
74458;SHT31;62896;51.032;3.712;2023-03-22T16:29:25;12;94
74458;SHT31;62896;51.032;3.712;2023-03-22T16:32:45;12;94
74458;SHT31;62896;51.032;3.712;2023-03-22T16:36:05;12;94
74458;SHT31;62896;51.032;3.712;2023-03-22T16:39:25;12;94
74458;SHT31;62896;51.032;3.712;2023-03-22T16:42:45;12;94
74458;SHT31;62896;51.032;3.712;2023-03-22T16:46:05;12;94
74458;SHT31;62896;51.032;3.712;2023-03-22T16:49:25;12;94
74458;SHT31;62896;51.032;3.712;2023-03-22T16:52:45;12;94
74458;SHT31;62896;51.032;3.712;2023-03-22T16:56:05;12.1;93
74458;SHT31;62896;51.032;3.712;2023-03-22T16:59:25;12.1;93
74458;SHT31;62896;51.032;3.712;2023-03-22T17:02:45;12.1;93
74458;SHT31;62896;51.032;3.712;2023-03-22T17:06:05;12.2;92
74458;SHT31;62896;51.032;3.712;2023-03-22T17:09:25;12.2;92
74458;SHT31;62896;51.032;3.712;2023-03-22T17:12:45;12.2;92
74458;SHT31;62896;51.032;3.712;2023-03-22T17:16:05;12.3;91
74458;SHT31;62896;51.032;3.712;2023-03-22T17:19:25;12.3;91
74458;SHT31;62896;51.032;3.712;2023-03-22T17:22:45;12.3;91
74458;SHT31;62896;51.032;3.712;2023-03-22T17:26:05;12.3;90
74458;SHT31;62896;51.032;3.712;2023-03-22T17:29:25;12.3;90
74458;SHT31;62896;51.032;3.712;2023-03-22T17:32:45;12.3;90
74458;SHT31;62896;51.032;3.712;2023-03-22T17:36:05;12.4;89
74458;SHT31;62896;51.032;3.712;2023-03-22T17:39:25;12.4;89
74458;SHT31;62896;51.032;3.712;2023-03-22T17:42:45;12.4;89
74458;SHT31;62896;51.032;3.712;2023-03-22T17:46:05;12.5;89
74458;SHT31;62896;51.032;3.712;2023-03-22T17:49:25;12.5;89
74458;SHT31;62896;51.032;3.712;2023-03-22T17:52:45;12.5;89
74458;SHT31;62896;51.032;3.712;2023-03-22T17:56:05;12.5;88
74458;SHT31;62896;51.032;3.712;2023-03-22T17:59:25;12.5;88
74458;SHT31;62896;51.032;3.712;2023-03-22T18:02:45;12.5;88
74458;SHT31;62896;51.032;3.712;2023-03-22T18:06:05;12.6;87
74458;SHT31;62896;51.032;3.712;2023-03-22T18:09:25;12.6;87
74458;SHT31;62896;51.032;3.712;2023-03-22T18:12:45;12.6;87
74458;SHT31;62896;51.032;3.712;2023-03-22T18:16:05;12.5;88
74458;SHT31;62896;51.032;3.712;2023-03-22T18:19:25;12.5;88
74458;SHT31;62896;51.032;3.712;2023-03-22T18:22:45;12.5;88
74458;SHT31;62896;51.032;3.712;2023-03-22T18:26:05;12.5;88
74458;SHT31;62896;51.032;3.712;2023-03-22T18:29:25;12.5;88
74458;SHT31;62896;51.032;3.712;2023-03-22T18:32:45;12.5;88
74458;SHT31;62896;51.032;3.712;2023-03-22T18:36:05;12.3;90
74458;SHT31;62896;51.032;3.712;2023-03-22T18:39:25;12.3;90
74458;SHT31;62896;51.032;3.712;2023-03-22T18:42:45;12.3;90
74458;SHT31;62896;51.032;3.712;2023-03-22T18:46:05;12.3;89
74458;SHT31;62896;51.032;3.712;2023-03-22T18:49:25;12.3;89
74458;SHT31;62896;51.032;3.712;2023-03-22T18:52:45;12.3;89
74458;SHT31;62896;51.032;3.712;2023-03-22T18:56:05;12.3;89
74458;SHT31;62896;51.032;3.712;2023-03-22T18:59:25;12.3;89
74458;SHT31;62896;51.032;3.712;2023-03-22T19:02:45;12.3;89
74458;SHT31;62896;51.032;3.712;2023-03-22T19:06:05;12.3;89
74458;SHT31;62896;51.032;3.712;2023-03-22T19:09:25;12.3;89
74458;SHT31;62896;51.032;3.712;2023-03-22T19:12:45;12.3;89
74458;SHT31;62896;51.032;3.712;2023-03-22T19:16:06;12.3;89
74458;SHT31;62896;51.032;3.712;2023-03-22T19:19:25;12.3;89
74458;SHT31;62896;51.032;3.712;2023-03-22T19:22:45;12.3;89
74458;SHT31;62896;51.032;3.712;2023-03-22T19:26:05;12.3;89
74458;SHT31;62896;51.032;3.712;2023-03-22T19:29:25;12.3;89
74458;SHT31;62896;51.032;3.712;2023-03-22T19:32:45;12.3;89
74458;SHT31;62896;51.032;3.712;2023-03-22T19:36:05;12.4;88
74458;SHT31;62896;51.032;3.712;2023-03-22T19:39:25;12.4;88
74458;SHT31;62896;51.032;3.712;2023-03-22T19:42:45;12.4;88
74458;SHT31;62896;51.032;3.712;2023-03-22T19:46:05;12.4;88
74458;SHT31;62896;51.032;3.712;2023-03-22T19:49:25;12.4;88
74458;SHT31;62896;51.032;3.712;2023-03-22T19:52:45;12.4;88
74458;SHT31;62896;51.032;3.712;2023-03-22T19:56:05;12.5;87
74458;SHT31;62896;51.032;3.712;2023-03-22T19:59:25;12.5;87
74458;SHT31;62896;51.032;3.712;2023-03-22T20:02:45;12.5;87
74458;SHT31;62896;51.032;3.712;2023-03-22T20:06:05;12.6;86
74458;SHT31;62896;51.032;3.712;2023-03-22T20:09:25;12.6;86
74458;SHT31;62896;51.032;3.712;2023-03-22T20:12:45;12.6;86
74458;SHT31;62896;51.032;3.712;2023-03-22T20:16:05;12.7;85
74458;SHT31;62896;51.032;3.712;2023-03-22T20:19:25;12.7;85
74458;SHT31;62896;51.032;3.712;2023-03-22T20:22:45;12.7;85
74458;SHT31;62896;51.032;3.712;2023-03-22T20:26:05;12.8;84
74458;SHT31;62896;51.032;3.712;2023-03-22T20:29:25;12.8;84
74458;SHT31;62896;51.032;3.712;2023-03-22T20:32:45;12.8;84
74458;SHT31;62896;51.032;3.712;2023-03-22T20:36:05;12.9;84
74458;SHT31;62896;51.032;3.712;2023-03-22T20:39:25;12.9;84
74458;SHT31;62896;51.032;3.712;2023-03-22T20:42:45;12.9;84
74458;SHT31;62896;51.032;3.712;2023-03-22T20:46:05;12.9;83
74458;SHT31;62896;51.032;3.712;2023-03-22T20:49:25;12.9;83
74458;SHT31;62896;51.032;3.712;2023-03-22T20:52:45;12.9;83
74458;SHT31;62896;51.032;3.712;2023-03-22T20:56:05;13;83
74458;SHT31;62896;51.032;3.712;2023-03-22T20:59:25;13;83
74458;SHT31;62896;51.032;3.712;2023-03-22T21:02:45;13;83
74458;SHT31;62896;51.032;3.712;2023-03-22T21:06:05;13;83
74458;SHT31;62896;51.032;3.712;2023-03-22T21:09:25;13;83
74458;SHT31;62896;51.032;3.712;2023-03-22T21:12:45;13;83
74458;SHT31;62896;51.032;3.712;2023-03-22T21:16:06;13;82
74458;SHT31;62896;51.032;3.712;2023-03-22T21:19:25;13;82
74458;SHT31;62896;51.032;3.712;2023-03-22T21:22:45;13;82
74458;SHT31;62896;51.032;3.712;2023-03-22T21:26:05;12.9;82
74458;SHT31;62896;51.032;3.712;2023-03-22T21:29:25;12.9;82
74458;SHT31;62896;51.032;3.712;2023-03-22T21:32:45;12.9;82
74458;SHT31;62896;51.032;3.712;2023-03-22T21:36:05;12.9;82
74458;SHT31;62896;51.032;3.712;2023-03-22T21:39:25;12.9;82
74458;SHT31;62896;51.032;3.712;2023-03-22T21:42:45;12.9;82
74458;SHT31;62896;51.032;3.712;2023-03-22T21:46:05;12.9;82
74458;SHT31;62896;51.032;3.712;2023-03-22T21:49:25;12.9;82
74458;SHT31;62896;51.032;3.712;2023-03-22T21:52:45;12.9;82
74458;SHT31;62896;51.032;3.712;2023-03-22T21:56:05;12.9;82
74458;SHT31;62896;51.032;3.712;2023-03-22T21:59:25;12.9;82
74458;SHT31;62896;51.032;3.712;2023-03-22T22:02:45;12.9;82
74458;SHT31;62896;51.032;3.712;2023-03-22T22:06:05;12.9;82
74458;SHT31;62896;51.032;3.712;2023-03-22T22:09:25;12.9;82
74458;SHT31;62896;51.032;3.712;2023-03-22T22:12:45;12.9;82
74458;SHT31;62896;51.032;3.712;2023-03-22T22:16:06;12.9;81
74458;SHT31;62896;51.032;3.712;2023-03-22T22:19:25;12.9;81
74458;SHT31;62896;51.032;3.712;2023-03-22T22:22:45;12.9;81
74458;SHT31;62896;51.032;3.712;2023-03-22T22:26:05;12.9;81
74458;SHT31;62896;51.032;3.712;2023-03-22T22:29:25;12.9;81
74458;SHT31;62896;51.032;3.712;2023-03-22T22:32:45;12.9;81
74458;SHT31;62896;51.032;3.712;2023-03-22T22:36:05;12.9;81
74458;SHT31;62896;51.032;3.712;2023-03-22T22:39:25;12.9;81